Balimo Airport


Codes: PG-OPU/OPU
Name: Balimo Airport
City: Balimo
Country: Papua New Guinea
Elevation: 51 ft.
Wikipedia:

Photos at Balimo Airport


   Photos courtesy of SpottingLog. You can add your own sightings and photos by signing up for a free trial today.



No photos found.

Weather at Balimo Airport


Time (UTC)DescriptionTempratureWindCloud coverageVisibilityPressureHumidity
19-Apr-2024 06:00Broken Clouds34°C2 mph, W84%10000m1004hPa54%
19-Apr-2024 09:00Light Rain30°C2 mph, SE95%10000m1006hPa77%
19-Apr-2024 12:00Moderate Rain25°C2 mph, E100%7039m1008hPa98%
19-Apr-2024 15:00Moderate Rain24°C2 mph, NE100%4721m1008hPa99%
19-Apr-2024 18:00Moderate Rain24°C2 mph, N100%3104m1008hPa99%
19-Apr-2024 21:00Heavy Intensity Rain24°C4 mph, N100%4392m1010hPa99%
20-Apr-2024 00:00Light Rain24°C2 mph, NW100%10000m1011hPa99%
20-Apr-2024 03:00Overcast Clouds28°C2 mph, NW100%10000m1008hPa77%
20-Apr-2024 06:00Overcast Clouds30°C4 mph, W100%10000m1006hPa68%
20-Apr-2024 09:00Overcast Clouds26°C2 mph, SW99%10000m1007hPa92%
20-Apr-2024 12:00Overcast Clouds25°C0 mph, SW100%10000m1009hPa94%
20-Apr-2024 15:00Overcast Clouds24°C2 mph, E100%10000m1008hPa97%
20-Apr-2024 18:00Overcast Clouds24°C2 mph, E100%10000m1008hPa97%
20-Apr-2024 21:00Overcast Clouds24°C2 mph, E92%10000m1009hPa95%
21-Apr-2024 00:00Overcast Clouds30°C2 mph, E96%10000m1010hPa73%
21-Apr-2024 03:00Light Rain33°C2 mph, SE100%10000m1006hPa59%
21-Apr-2024 06:00Light Rain29°C4 mph, SE100%10000m1005hPa83%
21-Apr-2024 09:00Light Rain26°C4 mph, SE100%10000m1007hPa92%
21-Apr-2024 12:00Overcast Clouds25°C4 mph, SE99%10000m1009hPa94%
21-Apr-2024 15:00Overcast Clouds25°C2 mph, E100%10000m1008hPa97%
21-Apr-2024 18:00Overcast Clouds24°C2 mph, E98%10000m1007hPa98%
21-Apr-2024 21:00Broken Clouds25°C2 mph, NE71%10000m1009hPa97%
22-Apr-2024 00:00Broken Clouds31°C4 mph, E83%10000m1009hPa67%
22-Apr-2024 03:00Light Rain32°C4 mph, SE98%10000m1006hPa62%
22-Apr-2024 06:00Light Rain31°C4 mph, SE99%10000m1004hPa70%
22-Apr-2024 09:00Light Rain26°C4 mph, SE100%10000m1007hPa91%
22-Apr-2024 12:00Light Rain25°C2 mph, SE100%10000m1009hPa97%
22-Apr-2024 15:00Light Rain25°C2 mph, E100%10000m1008hPa99%
22-Apr-2024 18:00Overcast Clouds25°C2 mph, E100%10000m1007hPa99%
22-Apr-2024 21:00Light Rain25°C2 mph, NE100%10000m1009hPa98%
23-Apr-2024 00:00Overcast Clouds29°C2 mph, E100%10000m1010hPa78%
23-Apr-2024 03:00Light Rain31°C4 mph, SE100%8732m1007hPa73%
23-Apr-2024 06:00Light Rain31°C7 mph, SE100%10000m1005hPa63%
23-Apr-2024 09:00Light Rain26°C4 mph, SE99%10000m1007hPa90%
23-Apr-2024 12:00Overcast Clouds25°C2 mph, SE99%10000m1009hPa94%
23-Apr-2024 15:00Light Rain25°C2 mph, SE99%10000m1008hPa98%
23-Apr-2024 18:00Light Rain24°C2 mph, SE86%10000m1008hPa99%
23-Apr-2024 21:00Scattered Clouds25°C2 mph, E43%10000m1009hPa98%
24-Apr-2024 00:00Light Rain30°C4 mph, SE45%10000m1010hPa74%
24-Apr-2024 03:00Light Rain30°C4 mph, SE94%10000m1007hPa79%